^^
Station Historical Data
Daily Summary for March 30, 2017 Units:  English    Metric   Both
« Previous Day
Next Day »
Daily Weekly Monthly Yearly Custom
  High: Low: Average:
Temperature: 50.1 °F 31.1 °F 41.4 °F
Dew Point: 35.5 °F 23.5 °F 26.5 °F
Humidity: 81% 39% 57%
Wind Speed: 5.0mph 0.0mph 1.1mph
Wind Gust: 18.0mph - -
Wind- - West
Pressure: 30.31 in 30.13 in -
Precipitation: 0.00 in    
Historical Graphs
 
 
Tabular Data for March 30, 2017
Time Temperature Dew Point Pressure Wind Wind Speed Wind Gust Humidity Rainfall Rate (Hourly) Conditions
00:00 39.4 °F 24.1 °F 30.26 in NW 1.0 mph 6.0 mph 54% 0.00 in CLR
00:15 38.8 °F 24.0 °F 30.26 in NNW 2.0 mph 8.0 mph 55% 0.00 in CLR
00:30 38.6 °F 24.3 °F 30.27 in Calm   6.0 mph 56% 0.00 in CLR
00:45 38.3 °F 24.4 °F 30.25 in NNE 1.0 mph 8.0 mph 57% 0.00 in CLR
01:00 37.6 °F 24.6 °F 30.25 in Calm   3.0 mph 59% 0.00 in CLR
02:15 36.6 °F 24.0 °F 30.22 in Calm   6.0 mph 60% 0.00 in CLR
02:30 36.0 °F 23.8 °F 30.23 in Calm   5.0 mph 61% 0.00 in CLR
02:45 35.6 °F 23.9 °F 30.22 in Calm   3.0 mph 62% 0.00 in CLR
03:00 35.4 °F 23.7 °F 30.22 in Calm   3.0 mph 62% 0.00 in CLR
03:15 34.5 °F 23.9 °F 30.22 in Calm   1.0 mph 65% 0.00 in CLR
03:30 34.8 °F 23.9 °F 30.22 in NW 1.0 mph 4.0 mph 64% 0.00 in CLR
03:45 35.0 °F 23.7 °F 30.24 in Calm   3.0 mph 63% 0.00 in CLR
04:00 34.8 °F 23.5 °F 30.24 in Calm   1.0 mph 63% 0.00 in CLR
04:15 34.5 °F 23.9 °F 30.24 in Calm   1.0 mph 65% 0.00 in CLR
04:45 34.3 °F 25.2 °F 30.24 in Calm   1.0 mph 69% 0.00 in CLR
05:00 33.3 °F 25.3 °F 30.25 in Calm   1.0 mph 72% 0.00 in CLR
05:15 33.6 °F 25.2 °F 30.25 in Calm   1.0 mph 71% 0.00 in CLR
05:30 33.5 °F 24.8 °F 30.26 in Calm   1.0 mph 70% 0.00 in CLR
05:45 34.0 °F 25.2 °F 30.27 in Calm   1.0 mph 70% 0.00 in CLR
06:00 33.7 °F 26.0 °F 30.26 in Calm   2.0 mph 73% 0.00 in CLR
06:15 32.7 °F 24.7 °F 30.26 in Calm   1.0 mph 72% 0.00 in CLR
06:30 31.6 °F 25.2 °F 30.27 in Calm     77% 0.00 in CLR
06:45 31.1 °F 24.4 °F 30.28 in Calm     76% 0.00 in CLR
07:00 32.4 °F 25.4 °F 30.29 in Calm   1.0 mph 75% 0.00 in CLR
07:15 31.5 °F 24.5 °F 30.30 in Calm     75% 0.00 in CLR
07:30 32.0 °F 25.9 °F 30.30 in Calm   1.0 mph 78% 0.00 in CLR
07:45 33.7 °F 26.9 °F 30.30 in Calm   1.0 mph 76% 0.00 in CLR
08:00 34.5 °F 26.1 °F 30.31 in NNW 1.0 mph 3.0 mph 71% 0.00 in CLR
08:15 35.5 °F 24.9 °F 30.30 in NNW 2.0 mph 9.0 mph 65% 0.00 in CLR
08:30 36.7 °F 25.3 °F 30.29 in NNW 3.0 mph 12.0 mph 63% 0.00 in CLR
08:45 37.7 °F 25.0 °F 30.28 in NNW 1.0 mph 14.0 mph 60% 0.00 in CLR
09:00 37.8 °F 24.4 °F 30.27 in NNW 5.0 mph 9.0 mph 58% 0.00 in CLR
09:15 38.4 °F 24.5 °F 30.26 in NNW 2.0 mph 9.0 mph 57% 0.00 in CLR
09:30 39.1 °F 24.3 °F 30.28 in NNW 3.0 mph 18.0 mph 55% 0.00 in CLR
09:45 39.8 °F 24.1 °F 30.27 in NNW 3.0 mph 12.0 mph 53% 0.00 in CLR
10:00 40.0 °F 23.8 °F 30.27 in NW 3.0 mph 10.0 mph 52% 0.00 in CLR
10:15 40.6 °F 23.9 °F 30.28 in NNW 3.0 mph 8.0 mph 51% 0.00 in CLR
10:30 40.7 °F 24.4 °F 30.28 in WNW 3.0 mph 9.0 mph 52% 0.00 in CLR
10:45 40.9 °F 24.6 °F 30.27 in NNW 2.0 mph 9.0 mph 52% 0.00 in CLR
11:00 41.1 °F 24.3 °F 30.28 in NNW 2.0 mph 9.0 mph 51% 0.00 in CLR
11:15 40.9 °F 24.2 °F 30.26 in WNW 3.0 mph 9.0 mph 51% 0.00 in CLR
11:30 41.9 °F 25.0 °F 30.25 in Calm   8.0 mph 51% 0.00 in CLR
11:45 42.3 °F 25.0 °F 30.25 in NW 2.0 mph 5.0 mph 50% 0.00 in CLR
12:00 42.9 °F 24.5 °F 30.25 in North 2.0 mph 7.0 mph 48% 0.00 in CLR
12:15 43.2 °F 25.3 °F 30.25 in NW 3.0 mph 8.0 mph 49% 0.00 in CLR
12:30 43.7 °F 24.8 °F 30.25 in North 2.0 mph 9.0 mph 47% 0.00 in CLR
12:45 44.6 °F 25.1 °F 30.24 in WSW 3.0 mph 9.0 mph 46% 0.00 in CLR
13:00 44.8 °F 25.3 °F 30.23 in Calm   7.0 mph 46% 0.00 in CLR
13:15 46.3 °F 24.4 °F 30.23 in WSW 3.0 mph 8.0 mph 42% 0.00 in CLR
13:30 45.3 °F 24.7 °F 30.22 in NW 2.0 mph 7.0 mph 44% 0.00 in CLR
13:45 46.1 °F 24.9 °F 30.22 in West 3.0 mph 7.0 mph 43% 0.00 in CLR
14:00 46.2 °F 24.9 °F 30.22 in West 2.0 mph 7.0 mph 43% 0.00 in CLR
14:15 46.5 °F 24.0 °F 30.22 in North 1.0 mph 7.0 mph 41% 0.00 in CLR
14:30 47.9 °F 25.3 °F 30.21 in North 1.0 mph 8.0 mph 41% 0.00 in CLR
14:45 48.0 °F 24.2 °F 30.20 in Calm   6.0 mph 39% 0.00 in CLR
15:00 48.4 °F 25.2 °F 30.19 in WNW 1.0 mph 6.0 mph 40% 0.00 in CLR
15:15 48.7 °F 26.0 °F 30.19 in West 1.0 mph 9.0 mph 41% 0.00 in CLR
15:30 49.0 °F 25.1 °F 30.19 in Calm   5.0 mph 39% 0.00 in CLR
15:45 49.8 °F 25.8 °F 30.19 in Calm   4.0 mph 39% 0.00 in CLR
16:00 49.5 °F 25.5 °F 30.18 in Calm   3.0 mph 39% 0.00 in CLR
16:15 49.3 °F 25.3 °F 30.17 in WSW 1.0 mph 3.0 mph 39% 0.00 in BKN
16:30 49.9 °F 25.9 °F 30.15 in Calm   2.0 mph 39% 0.00 in BKN
16:45 49.9 °F 26.5 °F 30.13 in Calm   4.0 mph 40% 0.00 in BKN
17:00 49.9 °F 25.9 °F 30.13 in NNW 1.0 mph 2.0 mph 39% 0.00 in BKN
17:15 50.1 °F 26.7 °F 30.14 in West 2.0 mph 5.0 mph 40% 0.00 in BKN
17:30 49.2 °F 26.5 °F 30.14 in Calm   4.0 mph 41% 0.00 in BKN
17:45 48.9 °F 27.4 °F 30.14 in Calm   1.0 mph 43% 0.00 in BKN
18:00 48.2 °F 26.1 °F 30.15 in WSW 1.0 mph 4.0 mph 42% 0.00 in BKN
18:15 47.9 °F 25.9 °F 30.16 in SW 1.0 mph 3.0 mph 42% 0.00 in BKN
18:30 47.6 °F 27.3 °F 30.15 in SW 2.0 mph 4.0 mph 45% 0.00 in BKN
18:45 47.2 °F 29.5 °F 30.15 in Calm   4.0 mph 50% 0.00 in BKN
19:00 46.6 °F 30.4 °F 30.15 in SW 1.0 mph 6.0 mph 53% 0.00 in BKN
19:15 46.1 °F 30.8 °F 30.15 in South 1.0 mph 8.0 mph 55% 0.00 in BKN
19:30 45.4 °F 31.0 °F 30.14 in Calm   5.0 mph 57% 0.00 in BKN
19:45 45.0 °F 31.1 °F 30.14 in Calm   4.0 mph 58% 0.00 in BKN
20:00 44.6 °F 30.7 °F 30.15 in South 1.0 mph 4.0 mph 58% 0.00 in BKN
20:15 44.3 °F 30.4 °F 30.16 in South 3.0 mph 12.0 mph 58% 0.00 in BKN
20:30 44.1 °F 30.2 °F 30.16 in SW 3.0 mph 6.0 mph 58% 0.00 in BKN
20:45 43.7 °F 29.9 °F 30.16 in SSW 2.0 mph 10.0 mph 58% 0.00 in BKN
21:00 43.6 °F 30.2 °F 30.16 in South 2.0 mph 6.0 mph 59% 0.00 in BKN
21:15 43.5 °F 30.5 °F 30.14 in South 1.0 mph 10.0 mph 60% 0.00 in BKN
21:30 43.5 °F 30.9 °F 30.16 in SSW 5.0 mph 7.0 mph 61% 0.00 in BKN
21:45 43.4 °F 31.2 °F 30.15 in Calm   8.0 mph 62% 0.00 in BKN
22:00 43.4 °F 31.6 °F 30.17 in Calm   5.0 mph 63% 0.00 in BKN
22:15 43.5 °F 32.1 °F 30.18 in WSW 1.0 mph 2.0 mph 64% 0.00 in BKN
22:30 43.2 °F 32.2 °F 30.17 in South 2.0 mph 4.0 mph 65% 0.00 in BKN
22:45 42.8 °F 33.0 °F 30.16 in Calm   4.0 mph 68% 0.00 in BKN
23:00 42.2 °F 34.1 °F 30.18 in Calm   1.0 mph 73% 0.00 in BKN
23:15 41.3 °F 34.6 °F 30.17 in Calm   1.0 mph 77% 0.00 in -RA
23:30 41.1 °F 34.5 °F 30.16 in Calm   1.0 mph 77% 0.00 in -RA
23:45 40.9 °F 35.5 °F 30.15 in Calm   1.0 mph 81% 0.00 in -RA
TarryTown NY Weather
Compliments of Weather Underground - 1.5 mb